createdAt,value
2023-05-17T01:12:50.815Z,101684.53
2023-05-17T01:47:34.565Z,101704.94
2023-05-17T01:50:03.522Z,101698.84
2023-05-17T01:52:33.622Z,101704.94
2023-05-17T01:55:04.857Z,101712.19
2023-05-17T01:57:36.145Z,101709.81
2023-05-17T02:48:49.957Z,101695.56
2023-05-17T02:51:18.134Z,101702.81
2023-05-17T02:53:46.196Z,101706.78
2023-05-17T02:56:16.748Z,101700.03
2023-05-17T02:58:45.659Z,101708.44
2023-05-17T03:48:02.854Z,101741.78
2023-05-17T03:50:32.723Z,101749.88
2023-05-17T03:53:01.313Z,101744.25
2023-05-17T03:55:29.543Z,101748.22
2023-05-17T03:57:57.719Z,101740.59
2023-05-17T04:47:16.710Z,101799.72
2023-05-17T04:49:44.899Z,101798.53
2023-05-17T04:52:12.892Z,101808.97
2023-05-17T04:54:40.910Z,101812.59
2023-05-17T04:57:09.063Z,101815.06
2023-05-17T04:59:54.732Z,101829.91
2023-05-17T05:02:24.437Z,101834.38
2023-05-17T05:04:52.863Z,101842.34
2023-05-17T05:07:21.120Z,101833.91
2023-05-17T05:09:49.318Z,101847.47
2023-05-17T05:12:18.321Z,101855.22
2023-05-17T05:14:46.302Z,101853.56
2023-05-17T05:17:14.206Z,101861.63
2023-05-17T05:19:44.551Z,101869.59
2023-05-17T05:22:13.247Z,101870.44
2023-05-17T05:24:41.950Z,101872.06
2023-05-17T05:27:09.919Z,101877.69
2023-05-17T05:29:39.115Z,101877.69
2023-05-17T05:32:08.144Z,101877.69
2023-05-17T05:34:43.811Z,101881.31
2023-05-17T05:37:13.174Z,101880.50
2023-05-17T05:39:41.213Z,101879.69
2023-05-17T05:42:10.074Z,101877.69
2023-05-17T05:44:40.073Z,101887.28
2023-05-17T05:47:14.677Z,101888.91
2023-05-17T05:49:43.232Z,101901.78
2023-05-17T05:52:16.201Z,101899.44
2023-05-17T05:54:45.096Z,101905.06
2023-05-17T05:57:13.300Z,101912.66
2023-05-17T05:59:41.810Z,101918.66
2023-05-17T06:02:09.865Z,101923.44
2023-05-17T06:04:45.339Z,101927.06
2023-05-17T06:07:19.691Z,101915.84
2023-05-17T06:09:53.410Z,101922.63
2023-05-17T06:12:21.414Z,101915.03
2023-05-17T06:14:49.435Z,101921.47
2023-05-17T06:17:17.637Z,101918.66
2023-05-17T06:19:46.166Z,101929.88
2023-05-17T06:22:15.803Z,101942.75
2023-05-17T06:24:43.903Z,101946.75
2023-05-17T06:27:12.095Z,101950.38
2023-05-17T06:29:40.055Z,101946.75
2023-05-17T06:32:08.294Z,101949.09
2023-05-17T06:34:36.619Z,101949.09
2023-05-17T06:37:06.748Z,101949.09
2023-05-17T06:39:36.523Z,101946.28
2023-05-17T06:42:04.700Z,101945.09
2023-05-17T06:44:37.122Z,101934.69
2023-05-17T06:47:05.438Z,101935.50
2023-05-17T06:49:33.546Z,101940.31
2023-05-17T06:52:03.737Z,101949.09
2023-05-17T06:54:31.826Z,101963.13
2023-05-17T06:57:02.381Z,101959.97
2023-05-17T06:59:30.476Z,101954.72
2023-05-17T07:02:00.209Z,101961.97
2023-05-17T07:04:28.447Z,101960.34
2023-05-17T07:06:56.584Z,101959.16
2023-05-17T07:09:26.277Z,101959.63
2023-05-17T07:11:54.460Z,101963.59
2023-05-17T07:14:23.916Z,101961.59
2023-05-17T07:16:52.287Z,101957.97
2023-05-17T07:19:20.870Z,101963.59
2023-05-17T07:21:51.846Z,101955.16
2023-05-17T07:24:19.964Z,101955.53
2023-05-17T07:26:48.508Z,101961.97
2023-05-17T07:29:18.095Z,101961.16
2023-05-17T07:31:47.902Z,101961.97
2023-05-17T07:34:18.981Z,101969.22
2023-05-17T07:36:50.292Z,101981.28
2023-05-17T07:39:18.389Z,101972.84
2023-05-17T07:41:46.432Z,101981.28
2023-05-17T07:44:14.456Z,101990.50
2023-05-17T07:46:42.760Z,101998.94
2023-05-17T07:49:12.643Z,102009.38
2023-05-17T07:51:43.928Z,102010.53
2023-05-17T07:54:14.030Z,102002.94
2023-05-17T07:56:42.052Z,102027.03
2023-05-17T07:59:18.787Z,102019.44
2023-05-17T08:01:47.092Z,102025.41
2023-05-17T08:04:16.539Z,102024.22
2023-05-17T08:06:45.873Z,102025.41
2023-05-17T08:09:13.963Z,102025.41
2023-05-17T08:11:47.953Z,102022.97
2023-05-17T08:14:16.208Z,102029.38
2023-05-17T08:16:44.485Z,102027.75
2023-05-17T08:19:13.567Z,102028.56
2023-05-17T08:21:43.247Z,102022.13
2023-05-17T08:24:11.929Z,102022.59
2023-05-17T08:26:40.209Z,102032.66
2023-05-17T08:29:08.156Z,102029.84
2023-05-17T08:31:36.174Z,102031.03
2023-05-17T08:34:06.029Z,102025.41
2023-05-17T08:36:34.528Z,102037.47
2023-05-17T08:39:04.399Z,102032.66
2023-05-17T08:41:32.917Z,102032.19
2023-05-17T08:44:01.202Z,102035.00
2023-05-17T08:46:29.273Z,102041.81
2023-05-17T08:49:57.646Z,102045.06
2023-05-17T09:08:31.371Z,102042.25
2023-05-17T09:11:05.881Z,102047.06
2023-05-17T09:13:33.865Z,102045.06
2023-05-17T09:16:02.136Z,102039.09
2023-05-17T09:18:33.609Z,102033.47
2023-05-17T09:21:05.080Z,102041.09
2023-05-17T09:23:34.215Z,102046.72
2023-05-17T09:26:05.541Z,102041.44
2023-05-17T09:28:38.065Z,102038.63
2023-05-17T09:31:07.425Z,102033.38
2023-05-17T09:33:35.744Z,102039.00
2023-05-17T09:36:05.911Z,102033.38
2023-05-17T09:38:34.303Z,102039.81
2023-05-17T09:41:04.056Z,102036.66
2023-05-17T09:43:50.082Z,102034.66
2023-05-17T10:01:34.918Z,102050.22
2023-05-17T10:04:03.632Z,102043.44
2023-05-17T10:06:45.898Z,102047.44
2023-05-17T10:09:16.352Z,102049.06
2023-05-17T10:11:45.607Z,102042.25
2023-05-17T10:14:14.929Z,102043.09
2023-05-17T10:16:45.136Z,102031.03
2023-05-17T10:19:14.510Z,102035.81
2023-05-17T10:21:46.119Z,102044.63
2023-05-17T10:24:18.113Z,102039.00
2023-05-17T10:26:48.543Z,102055.00
2023-05-17T10:29:26.898Z,102050.22
2023-05-17T10:31:59.980Z,102060.63
2023-05-17T10:34:32.876Z,102045.06
2023-05-17T10:37:01.233Z,102047.88
2023-05-17T10:39:34.611Z,102048.69
2023-05-17T10:45:00.207Z,102058.66
2023-05-17T10:48:01.244Z,102051.88
2023-05-17T10:50:34.397Z,102063.94
2023-05-17T10:53:08.927Z,102063.94
2023-05-17T10:55:53.549Z,102061.47
2023-05-17T10:58:32.005Z,102068.72
2023-05-17T11:01:07.018Z,102066.38
2023-05-17T11:07:16.906Z,102052.31
2023-05-17T11:09:56.398Z,102063.56
2023-05-17T11:13:19.075Z,102059.13
2023-05-17T11:16:27.334Z,102064.75
2023-05-17T11:19:08.409Z,102061.13
2023-05-17T11:21:46.241Z,102071.53
2023-05-17T11:31:50.973Z,102058.66
2023-05-17T11:34:28.089Z,102067.09
2023-05-17T11:37:02.932Z,102063.94
2023-05-17T11:39:33.587Z,102051.88
2023-05-17T11:42:07.883Z,102044.63
2023-05-17T11:44:41.814Z,102051.06
2023-05-17T11:47:18.380Z,102056.66
2023-05-17T11:49:58.795Z,102059.13
2023-05-17T11:52:30.964Z,102051.50
2023-05-17T11:55:05.680Z,102055.13
2023-05-17T11:57:41.610Z,102063.56
2023-05-17T12:00:10.428Z,102063.56
2023-05-17T12:02:41.777Z,102055.13
2023-05-17T12:05:15.483Z,102062.75
2023-05-17T12:07:49.593Z,102057.94
2023-05-17T12:10:22.074Z,102058.31
2023-05-17T12:12:57.676Z,102057.50
2023-05-17T12:15:25.866Z,102057.50
2023-05-17T12:17:54.288Z,102055.13
2023-05-17T12:20:26.617Z,102060.75
2023-05-17T12:22:56.224Z,102056.78
2023-05-17T12:25:30.843Z,102059.13
2023-05-17T12:28:20.646Z,102059.13
2023-05-17T12:30:49.084Z,102059.13
2023-05-17T12:33:18.505Z,102050.69
2023-05-17T12:35:51.157Z,102047.06
2023-05-17T12:38:19.492Z,102047.44
2023-05-17T12:40:47.979Z,102053.84
2023-05-17T12:43:16.175Z,102047.88
2023-05-17T12:45:44.219Z,102051.16
2023-05-17T12:48:12.518Z,102046.34
2023-05-17T12:50:40.661Z,102045.53
2023-05-17T12:53:15.840Z,102058.41
2023-05-17T12:55:44.010Z,102044.72
2023-05-17T12:58:12.291Z,102049.50
2023-05-17T13:00:40.255Z,102050.69
2023-05-17T13:03:10.949Z,102050.69
2023-05-17T13:05:41.294Z,102036.66
2023-05-17T13:08:25.165Z,102042.72
2023-05-17T13:11:42.587Z,102046.34
2023-05-17T13:14:12.942Z,102054.44
2023-05-17T13:16:44.053Z,102053.97
2023-05-17T13:19:13.767Z,102053.50
2023-05-17T13:21:42.375Z,102055.13
2023-05-17T13:24:14.320Z,102059.13
2023-05-17T13:26:58.305Z,102053.50
2023-05-17T13:29:43.345Z,102059.13
2023-05-17T13:32:24.419Z,102059.13
2023-05-17T13:35:07.266Z,102062.38
2023-05-17T13:37:38.995Z,102057.59
2023-05-17T13:40:18.646Z,102068.81
2023-05-17T13:42:54.886Z,102052.78
2023-05-17T13:45:47.077Z,102056.78
2023-05-17T13:48:24.615Z,102066.38
2023-05-17T13:51:01.434Z,102058.31
2023-05-17T13:53:39.320Z,102058.31
2023-05-17T13:56:17.179Z,102064.75
2023-05-17T13:59:00.171Z,102061.94
2023-05-17T14:01:34.802Z,102062.38
2023-05-17T14:04:23.641Z,102074.81
2023-05-17T14:07:16.384Z,102059.59
2023-05-17T14:09:50.115Z,102068.00
2023-05-17T14:12:24.618Z,102070.34
2023-05-17T14:14:55.955Z,102079.25
2023-05-17T14:20:39.980Z,102079.25
2023-05-17T14:23:15.497Z,102077.63
2023-05-17T14:25:59.209Z,102072.00
2023-05-17T14:28:29.586Z,102077.63
2023-05-17T14:30:57.900Z,102079.25
2023-05-17T14:33:28.432Z,102073.63
2023-05-17T14:35:57.329Z,102083.22
2023-05-17T14:38:28.189Z,102088.03
2023-05-17T14:40:56.713Z,102087.22
2023-05-17T14:43:25.764Z,102088.03
2023-05-17T14:45:55.414Z,102081.59
2023-05-17T14:48:24.918Z,102084.41
2023-05-17T14:50:53.920Z,102092.47
2023-05-17T14:53:27.793Z,102093.78
2023-05-17T14:55:56.019Z,102099.41
2023-05-17T14:58:30.681Z,102092.13
2023-05-17T15:07:24.450Z,102112.97
2023-05-17T15:10:05.473Z,102105.72
2023-05-17T15:12:35.152Z,102114.59
2023-05-17T15:15:03.823Z,102114.13
2023-05-17T15:18:10.331Z,102118.59
2023-05-17T15:20:58.039Z,102121.88
2023-05-17T15:31:29.792Z,102125.84
2023-05-17T15:34:02.107Z,102138.25
2023-05-17T15:36:30.515Z,102128.19
2023-05-17T15:38:58.738Z,102133.81
2023-05-17T15:41:29.713Z,102134.63
2023-05-17T15:43:58.876Z,102135.44
2023-05-17T15:46:27.357Z,102142.69
2023-05-17T15:48:56.809Z,102137.06
2023-05-17T15:51:26.778Z,102138.75
2023-05-17T15:53:55.533Z,102135.44
2023-05-17T15:56:27.286Z,102145.50
2023-05-17T15:58:55.511Z,102147.50
2023-05-17T16:01:23.671Z,102145.88
2023-05-17T16:03:52.073Z,102145.88
2023-05-17T16:06:22.275Z,102142.69
2023-05-17T16:08:55.474Z,102137.44
2023-05-17T16:11:24.744Z,102146.69
2023-05-17T16:13:52.825Z,102142.69
2023-05-17T16:16:21.221Z,102148.31
2023-05-17T16:18:49.709Z,102142.69
2023-05-17T16:21:18.569Z,102149.16
2023-05-17T16:23:46.623Z,102153.13
2023-05-17T16:26:23.421Z,102152.31
2023-05-17T16:28:56.885Z,102145.88
2023-05-17T16:31:28.266Z,102146.69
2023-05-17T16:33:58.231Z,102150.66
2023-05-17T16:36:29.597Z,102153.47
2023-05-17T16:38:58.347Z,102157.91
2023-05-17T16:41:33.572Z,102155.09
2023-05-17T16:44:01.518Z,102161.09
2023-05-17T16:46:31.602Z,102162.72
2023-05-17T16:48:59.626Z,102159.91
2023-05-17T16:51:28.101Z,102167.53
2023-05-17T16:53:57.928Z,102163.97
2023-05-17T16:56:26.745Z,102158.78
2023-05-17T16:58:56.104Z,102169.72
2023-05-17T17:01:24.151Z,102164.66
2023-05-17T17:03:52.546Z,102169.69
2023-05-17T17:06:38.437Z,102166.88
2023-05-17T17:09:12.488Z,102171.19
2023-05-17T17:12:02.675Z,102167.22
2023-05-17T17:14:37.269Z,102169.22
2023-05-17T17:17:05.557Z,102170.84
2023-05-17T17:19:33.755Z,102171.53
2023-05-17T17:22:06.391Z,102164.97
2023-05-17T17:24:39.640Z,102168.25
2023-05-17T17:27:14.631Z,102170.16
2023-05-17T17:30:13.358Z,102161.25
2023-05-17T17:33:06.373Z,102167.53
2023-05-17T17:36:13.784Z,102172.03
2023-05-17T17:39:10.827Z,102164.28
2023-05-17T17:42:03.619Z,102167.06
2023-05-17T17:44:37.520Z,102175.25
2023-05-17T17:48:09.655Z,102180.78
2023-05-17T19:27:06.228Z,102291.00
2023-05-17T19:29:48.109Z,102297.13
2023-05-17T19:32:24.731Z,102300.41
2023-05-17T19:34:59.020Z,102307.66
2023-05-17T19:37:28.042Z,102300.88
2023-05-17T19:40:00.404Z,102307.00
2023-05-17T19:42:40.302Z,102308.63
2023-05-17T19:45:28.100Z,102310.28
2023-05-17T19:48:10.247Z,102311.09
2023-05-17T19:50:41.104Z,102323.16
2023-05-17T19:53:10.116Z,102330.41
2023-05-17T19:55:43.482Z,102334.06
2023-05-17T19:58:13.004Z,102337.69
2023-05-17T20:00:41.931Z,102335.69
2023-05-17T20:03:10.244Z,102344.94
2023-05-17T20:05:38.458Z,102338.50
2023-05-17T20:08:08.192Z,102350.56
2023-05-17T20:10:36.510Z,102354.19
2023-05-17T20:13:04.603Z,102361.78
2023-05-17T20:15:33.904Z,102354.19
2023-05-17T20:18:02.343Z,102361.78
2023-05-17T20:20:33.640Z,102360.63
2023-05-17T20:23:02.265Z,102361.78
2023-05-17T20:25:33.436Z,102365.91
2023-05-17T20:28:03.608Z,102366.72
2023-05-17T20:30:31.969Z,102357.81
2023-05-17T20:33:10.469Z,102370.69
2023-05-17T20:36:01.865Z,102375.13
2023-05-17T20:39:06.517Z,102368.69
2023-05-17T20:41:37.432Z,102379.63
2023-05-17T20:44:10.081Z,102377.94
2023-05-17T20:46:38.750Z,102379.63
2023-05-17T20:49:10.150Z,102384.38
2023-05-17T20:51:38.256Z,102383.56
2023-05-17T20:54:09.429Z,102385.25
2023-05-17T20:59:34.558Z,102393.66
2023-05-17T21:02:07.552Z,102386.06
2023-05-17T21:04:43.149Z,102386.88
2023-05-17T21:07:17.500Z,102382.91
2023-05-17T21:09:46.654Z,102390.16
2023-05-17T21:12:18.060Z,102385.72
2023-05-17T21:15:03.668Z,102392.97
2023-05-17T21:17:51.416Z,102384.53
2023-05-17T21:20:23.048Z,102386.19
2023-05-17T21:22:58.745Z,102398.22
2023-05-17T21:25:27.190Z,102391.81
2023-05-17T21:27:55.726Z,102386.19
2023-05-17T21:30:26.775Z,102393.47
2023-05-17T21:32:57.644Z,102392.63
2023-05-17T21:35:27.201Z,102395.09
2023-05-17T21:37:56.605Z,102399.09
2023-05-17T21:40:24.723Z,102397.91
2023-05-17T21:42:54.060Z,102393.47
2023-05-17T21:45:24.751Z,102403.53
2023-05-17T21:47:52.916Z,102399.09
2023-05-17T21:50:21.165Z,102391.47
2023-05-17T21:52:50.623Z,102396.75
2023-05-17T21:55:18.518Z,102392.78
2023-05-17T21:57:46.759Z,102393.94
2023-05-17T22:00:16.264Z,102390.78
2023-05-17T22:02:47.246Z,102390.78
2023-05-17T22:05:15.376Z,102400.03
2023-05-17T22:07:45.596Z,102396.06
2023-05-17T22:10:15.255Z,102391.28
2023-05-17T22:12:43.333Z,102390.44
2023-05-17T22:15:13.695Z,102390.44
2023-05-17T22:17:51.332Z,102392.09
2023-05-17T22:20:27.059Z,102388.13
2023-05-17T22:22:57.087Z,102392.09
2023-05-17T22:25:26.991Z,102390.44
2023-05-17T22:27:55.136Z,102391.59
2023-05-17T22:30:23.698Z,102397.72
2023-05-17T22:32:54.832Z,102402.53
2023-05-17T22:35:26.341Z,102407.28
2023-05-17T22:37:54.702Z,102412.91
2023-05-17T22:40:22.979Z,102412.09
2023-05-17T22:42:52.582Z,102407.28
2023-05-17T22:45:20.636Z,102410.44
2023-05-17T22:47:48.900Z,102410.09
2023-05-17T22:50:18.594Z,102419.38
2023-05-17T22:52:47.341Z,102420.19
2023-05-17T22:55:15.440Z,102420.19
2023-05-17T22:57:43.627Z,102425.81
2023-05-17T23:18:14.335Z,102441.50
2023-05-17T23:20:46.772Z,102437.06
2023-05-17T23:23:16.896Z,102441.00
2023-05-17T23:25:48.828Z,102435.38
2023-05-17T23:28:18.391Z,102441.00
